sensor_id;sensor_type;location;lat;lon;timestamp;P1;durP1;ratioP1;P2;durP2;ratioP2
68583;SDS011;55557;49.220;11.150;2023-07-20T00:01:17;5.80;;;3.07;;
68583;SDS011;55557;49.220;11.150;2023-07-20T00:03:43;4.80;;;2.40;;
68583;SDS011;55557;49.220;11.150;2023-07-20T00:06:09;3.67;;;3.03;;
68583;SDS011;55557;49.220;11.150;2023-07-20T00:08:35;9.73;;;3.40;;
68583;SDS011;55557;49.220;11.150;2023-07-20T00:11:01;4.23;;;3.03;;
68583;SDS011;55557;49.220;11.150;2023-07-20T00:13:27;7.27;;;3.10;;
68583;SDS011;55557;49.220;11.150;2023-07-20T00:15:53;5.37;;;3.33;;
68583;SDS011;55557;49.220;11.150;2023-07-20T00:18:19;7.37;;;3.00;;
68583;SDS011;55557;49.220;11.150;2023-07-20T00:20:46;4.17;;;2.63;;
68583;SDS011;55557;49.220;11.150;2023-07-20T00:23:12;4.13;;;2.60;;
68583;SDS011;55557;49.220;11.150;2023-07-20T00:25:39;4.50;;;2.90;;
68583;SDS011;55557;49.220;11.150;2023-07-20T00:28:05;8.03;;;2.83;;
68583;SDS011;55557;49.220;11.150;2023-07-20T00:30:31;4.93;;;3.10;;
68583;SDS011;55557;49.220;11.150;2023-07-20T00:32:57;5.20;;;2.93;;
68583;SDS011;55557;49.220;11.150;2023-07-20T00:35:23;6.93;;;2.60;;
68583;SDS011;55557;49.220;11.150;2023-07-20T00:37:49;4.37;;;3.00;;
68583;SDS011;55557;49.220;11.150;2023-07-20T00:40:15;6.37;;;2.97;;
68583;SDS011;55557;49.220;11.150;2023-07-20T00:42:42;10.80;;;3.20;;
68583;SDS011;55557;49.220;11.150;2023-07-20T00:45:08;4.10;;;2.90;;
68583;SDS011;55557;49.220;11.150;2023-07-20T00:47:34;4.63;;;2.87;;
68583;SDS011;55557;49.220;11.150;2023-07-20T00:50:02;4.27;;;2.67;;
68583;SDS011;55557;49.220;11.150;2023-07-20T00:52:28;6.70;;;3.53;;
68583;SDS011;55557;49.220;11.150;2023-07-20T00:54:56;4.20;;;2.60;;
68583;SDS011;55557;49.220;11.150;2023-07-20T00:57:23;3.47;;;2.70;;
68583;SDS011;55557;49.220;11.150;2023-07-20T00:59:51;6.60;;;2.67;;
68583;SDS011;55557;49.220;11.150;2023-07-20T01:02:18;5.00;;;2.40;;
68583;SDS011;55557;49.220;11.150;2023-07-20T01:04:44;4.93;;;3.00;;
68583;SDS011;55557;49.220;11.150;2023-07-20T01:07:11;8.43;;;3.07;;
68583;SDS011;55557;49.220;11.150;2023-07-20T01:12:18;7.47;;;2.93;;
68583;SDS011;55557;49.220;11.150;2023-07-20T01:14:47;6.37;;;2.80;;
68583;SDS011;55557;49.220;11.150;2023-07-20T01:17:14;3.93;;;3.10;;
68583;SDS011;55557;49.220;11.150;2023-07-20T01:19:40;6.07;;;3.30;;
68583;SDS011;55557;49.220;11.150;2023-07-20T01:22:14;3.90;;;2.50;;
68583;SDS011;55557;49.220;11.150;2023-07-20T01:32:17;7.47;;;3.27;;
68583;SDS011;55557;49.220;11.150;2023-07-20T01:34:43;5.43;;;2.70;;
68583;SDS011;55557;49.220;11.150;2023-07-20T01:37:10;9.90;;;3.03;;
68583;SDS011;55557;49.220;11.150;2023-07-20T01:39:36;6.90;;;3.00;;
68583;SDS011;55557;49.220;11.150;2023-07-20T01:42:03;7.80;;;3.30;;
68583;SDS011;55557;49.220;11.150;2023-07-20T01:44:29;6.43;;;2.70;;
68583;SDS011;55557;49.220;11.150;2023-07-20T01:46:55;9.03;;;3.23;;
68583;SDS011;55557;49.220;11.150;2023-07-20T01:49:21;6.70;;;2.60;;
68583;SDS011;55557;49.220;11.150;2023-07-20T01:51:47;4.80;;;3.10;;
68583;SDS011;55557;49.220;11.150;2023-07-20T01:54:13;8.03;;;3.33;;
68583;SDS011;55557;49.220;11.150;2023-07-20T01:56:39;7.50;;;3.00;;
68583;SDS011;55557;49.220;11.150;2023-07-20T01:59:05;4.80;;;3.17;;
68583;SDS011;55557;49.220;11.150;2023-07-20T02:01:31;8.13;;;2.80;;
68583;SDS011;55557;49.220;11.150;2023-07-20T02:03:57;3.20;;;2.70;;
68583;SDS011;55557;49.220;11.150;2023-07-20T02:06:23;6.10;;;2.83;;
68583;SDS011;55557;49.220;11.150;2023-07-20T02:08:49;5.57;;;2.60;;
68583;SDS011;55557;49.220;11.150;2023-07-20T02:11:15;5.17;;;2.53;;
68583;SDS011;55557;49.220;11.150;2023-07-20T02:13:41;7.23;;;3.07;;
68583;SDS011;55557;49.220;11.150;2023-07-20T02:16:07;6.23;;;2.73;;
68583;SDS011;55557;49.220;11.150;2023-07-20T02:18:33;7.70;;;2.90;;
68583;SDS011;55557;49.220;11.150;2023-07-20T02:21:00;5.43;;;2.40;;
68583;SDS011;55557;49.220;11.150;2023-07-20T02:23:26;8.57;;;2.93;;
68583;SDS011;55557;49.220;11.150;2023-07-20T02:25:52;5.20;;;2.80;;
68583;SDS011;55557;49.220;11.150;2023-07-20T02:28:18;3.30;;;2.37;;
68583;SDS011;55557;49.220;11.150;2023-07-20T02:30:44;6.57;;;3.10;;
68583;SDS011;55557;49.220;11.150;2023-07-20T02:33:10;3.57;;;2.47;;
68583;SDS011;55557;49.220;11.150;2023-07-20T02:35:36;3.07;;;2.50;;
68583;SDS011;55557;49.220;11.150;2023-07-20T02:38:02;5.30;;;2.67;;
68583;SDS011;55557;49.220;11.150;2023-07-20T02:40:28;3.27;;;2.53;;
68583;SDS011;55557;49.220;11.150;2023-07-20T02:42:54;4.23;;;2.73;;
68583;SDS011;55557;49.220;11.150;2023-07-20T02:45:20;8.47;;;3.50;;
68583;SDS011;55557;49.220;11.150;2023-07-20T02:47:46;5.23;;;2.67;;
68583;SDS011;55557;49.220;11.150;2023-07-20T02:50:12;4.07;;;2.77;;
68583;SDS011;55557;49.220;11.150;2023-07-20T02:52:39;4.23;;;2.50;;
68583;SDS011;55557;49.220;11.150;2023-07-20T02:55:05;6.13;;;3.00;;
68583;SDS011;55557;49.220;11.150;2023-07-20T02:57:31;5.73;;;2.57;;
68583;SDS011;55557;49.220;11.150;2023-07-20T02:59:57;4.33;;;3.00;;
68583;SDS011;55557;49.220;11.150;2023-07-20T03:02:23;4.40;;;2.93;;
68583;SDS011;55557;49.220;11.150;2023-07-20T03:04:50;9.87;;;2.97;;
68583;SDS011;55557;49.220;11.150;2023-07-20T03:07:16;3.73;;;2.73;;
68583;SDS011;55557;49.220;11.150;2023-07-20T03:09:42;5.10;;;3.33;;
68583;SDS011;55557;49.220;11.150;2023-07-20T03:12:08;7.87;;;3.87;;
68583;SDS011;55557;49.220;11.150;2023-07-20T03:14:34;6.10;;;3.10;;
68583;SDS011;55557;49.220;11.150;2023-07-20T03:17:00;3.67;;;2.93;;
68583;SDS011;55557;49.220;11.150;2023-07-20T03:19:26;4.63;;;2.90;;
68583;SDS011;55557;49.220;11.150;2023-07-20T03:21:53;7.17;;;3.30;;
68583;SDS011;55557;49.220;11.150;2023-07-20T03:24:19;4.87;;;2.90;;
68583;SDS011;55557;49.220;11.150;2023-07-20T03:26:46;4.57;;;3.17;;
68583;SDS011;55557;49.220;11.150;2023-07-20T03:29:12;4.67;;;3.00;;
68583;SDS011;55557;49.220;11.150;2023-07-20T03:31:38;6.70;;;2.67;;
68583;SDS011;55557;49.220;11.150;2023-07-20T03:34:07;6.40;;;3.43;;
68583;SDS011;55557;49.220;11.150;2023-07-20T03:36:33;7.37;;;3.10;;
68583;SDS011;55557;49.220;11.150;2023-07-20T03:38:59;6.87;;;3.17;;
68583;SDS011;55557;49.220;11.150;2023-07-20T03:41:25;5.93;;;2.90;;
68583;SDS011;55557;49.220;11.150;2023-07-20T03:43:51;5.20;;;2.87;;
68583;SDS011;55557;49.220;11.150;2023-07-20T03:46:17;7.13;;;2.90;;
68583;SDS011;55557;49.220;11.150;2023-07-20T03:48:43;5.07;;;2.90;;
68583;SDS011;55557;49.220;11.150;2023-07-20T03:51:09;7.13;;;2.70;;
68583;SDS011;55557;49.220;11.150;2023-07-20T03:53:35;5.67;;;3.13;;
68583;SDS011;55557;49.220;11.150;2023-07-20T03:56:02;7.07;;;2.53;;
68583;SDS011;55557;49.220;11.150;2023-07-20T03:58:28;8.53;;;2.90;;
68583;SDS011;55557;49.220;11.150;2023-07-20T04:00:55;4.20;;;2.53;;
68583;SDS011;55557;49.220;11.150;2023-07-20T04:03:24;3.73;;;2.93;;
68583;SDS011;55557;49.220;11.150;2023-07-20T04:05:52;6.37;;;2.57;;
68583;SDS011;55557;49.220;11.150;2023-07-20T04:08:19;7.63;;;3.77;;
68583;SDS011;55557;49.220;11.150;2023-07-20T04:10:45;6.03;;;3.00;;
68583;SDS011;55557;49.220;11.150;2023-07-20T04:13:11;3.83;;;2.40;;
68583;SDS011;55557;49.220;11.150;2023-07-20T04:15:37;2.83;;;2.37;;
68583;SDS011;55557;49.220;11.150;2023-07-20T04:18:03;4.20;;;2.57;;
68583;SDS011;55557;49.220;11.150;2023-07-20T04:20:29;3.07;;;2.57;;
68583;SDS011;55557;49.220;11.150;2023-07-20T04:22:55;6.43;;;2.80;;
68583;SDS011;55557;49.220;11.150;2023-07-20T04:25:21;4.13;;;2.43;;
68583;SDS011;55557;49.220;11.150;2023-07-20T04:27:47;5.83;;;2.90;;
68583;SDS011;55557;49.220;11.150;2023-07-20T04:30:14;7.77;;;2.57;;
68583;SDS011;55557;49.220;11.150;2023-07-20T04:32:40;5.97;;;2.77;;
68583;SDS011;55557;49.220;11.150;2023-07-20T04:35:09;4.87;;;3.03;;
68583;SDS011;55557;49.220;11.150;2023-07-20T04:37:35;5.83;;;3.00;;
68583;SDS011;55557;49.220;11.150;2023-07-20T04:40:01;5.27;;;3.00;;
68583;SDS011;55557;49.220;11.150;2023-07-20T04:42:28;7.43;;;2.77;;
68583;SDS011;55557;49.220;11.150;2023-07-20T04:44:54;6.40;;;2.53;;
68583;SDS011;55557;49.220;11.150;2023-07-20T04:47:20;6.00;;;3.13;;
68583;SDS011;55557;49.220;11.150;2023-07-20T04:49:46;8.13;;;2.83;;
68583;SDS011;55557;49.220;11.150;2023-07-20T04:52:12;6.50;;;3.23;;
68583;SDS011;55557;49.220;11.150;2023-07-20T04:54:38;4.67;;;3.03;;
68583;SDS011;55557;49.220;11.150;2023-07-20T04:57:09;7.03;;;2.40;;
68583;SDS011;55557;49.220;11.150;2023-07-20T04:59:35;3.70;;;2.73;;
68583;SDS011;55557;49.220;11.150;2023-07-20T05:02:01;6.10;;;2.73;;
68583;SDS011;55557;49.220;11.150;2023-07-20T05:04:27;5.27;;;2.90;;
68583;SDS011;55557;49.220;11.150;2023-07-20T05:06:53;5.23;;;2.63;;
68583;SDS011;55557;49.220;11.150;2023-07-20T05:09:19;10.77;;;2.47;;
68583;SDS011;55557;49.220;11.150;2023-07-20T05:11:45;3.27;;;2.37;;
68583;SDS011;55557;49.220;11.150;2023-07-20T05:14:12;4.73;;;3.20;;
68583;SDS011;55557;49.220;11.150;2023-07-20T05:16:38;3.53;;;2.77;;
68583;SDS011;55557;49.220;11.150;2023-07-20T05:19:07;3.67;;;2.73;;
68583;SDS011;55557;49.220;11.150;2023-07-20T05:21:33;6.30;;;2.87;;
68583;SDS011;55557;49.220;11.150;2023-07-20T05:24:01;3.37;;;2.67;;
68583;SDS011;55557;49.220;11.150;2023-07-20T05:26:27;6.57;;;2.50;;
68583;SDS011;55557;49.220;11.150;2023-07-20T05:28:53;8.70;;;2.80;;
68583;SDS011;55557;49.220;11.150;2023-07-20T05:31:19;5.70;;;2.80;;
68583;SDS011;55557;49.220;11.150;2023-07-20T05:33:45;5.37;;;3.10;;
68583;SDS011;55557;49.220;11.150;2023-07-20T05:36:11;11.30;;;2.90;;
68583;SDS011;55557;49.220;11.150;2023-07-20T05:38:37;7.27;;;2.93;;
68583;SDS011;55557;49.220;11.150;2023-07-20T05:41:03;3.17;;;2.40;;
68583;SDS011;55557;49.220;11.150;2023-07-20T05:43:29;5.43;;;2.77;;
68583;SDS011;55557;49.220;11.150;2023-07-20T05:45:56;4.13;;;2.80;;
68583;SDS011;55557;49.220;11.150;2023-07-20T05:48:23;3.13;;;2.53;;
68583;SDS011;55557;49.220;11.150;2023-07-20T05:50:49;9.50;;;3.73;;
68583;SDS011;55557;49.220;11.150;2023-07-20T05:53:15;2.57;;;2.37;;
68583;SDS011;55557;49.220;11.150;2023-07-20T05:55:41;4.57;;;2.80;;
68583;SDS011;55557;49.220;11.150;2023-07-20T05:58:07;4.60;;;2.40;;
68583;SDS011;55557;49.220;11.150;2023-07-20T06:00:33;3.27;;;2.40;;
68583;SDS011;55557;49.220;11.150;2023-07-20T06:02:59;4.43;;;2.57;;
68583;SDS011;55557;49.220;11.150;2023-07-20T06:05:25;3.43;;;2.30;;
68583;SDS011;55557;49.220;11.150;2023-07-20T06:07:51;3.17;;;2.20;;
68583;SDS011;55557;49.220;11.150;2023-07-20T06:10:17;5.43;;;2.77;;
68583;SDS011;55557;49.220;11.150;2023-07-20T06:12:47;6.40;;;2.50;;
68583;SDS011;55557;49.220;11.150;2023-07-20T06:15:26;3.93;;;2.10;;
68583;SDS011;55557;49.220;11.150;2023-07-20T06:17:53;4.17;;;2.17;;
68583;SDS011;55557;49.220;11.150;2023-07-20T06:20:19;4.43;;;2.70;;
68583;SDS011;55557;49.220;11.150;2023-07-20T06:22:45;6.17;;;2.30;;
68583;SDS011;55557;49.220;11.150;2023-07-20T06:25:11;3.60;;;2.60;;
68583;SDS011;55557;49.220;11.150;2023-07-20T06:27:46;4.47;;;2.50;;
68583;SDS011;55557;49.220;11.150;2023-07-20T06:30:12;8.83;;;3.03;;
68583;SDS011;55557;49.220;11.150;2023-07-20T06:32:38;3.53;;;2.30;;
68583;SDS011;55557;49.220;11.150;2023-07-20T06:35:05;9.33;;;2.83;;
68583;SDS011;55557;49.220;11.150;2023-07-20T06:37:31;5.37;;;3.10;;
68583;SDS011;55557;49.220;11.150;2023-07-20T06:39:58;6.23;;;2.80;;
68583;SDS011;55557;49.220;11.150;2023-07-20T06:42:29;3.47;;;2.47;;
68583;SDS011;55557;49.220;11.150;2023-07-20T06:44:56;7.70;;;2.77;;
68583;SDS011;55557;49.220;11.150;2023-07-20T06:47:22;4.13;;;2.63;;
68583;SDS011;55557;49.220;11.150;2023-07-20T06:49:48;4.83;;;2.90;;
68583;SDS011;55557;49.220;11.150;2023-07-20T06:52:14;5.07;;;3.00;;
68583;SDS011;55557;49.220;11.150;2023-07-20T06:54:40;13.17;;;2.73;;
68583;SDS011;55557;49.220;11.150;2023-07-20T06:57:06;7.07;;;2.90;;
68583;SDS011;55557;49.220;11.150;2023-07-20T06:59:32;8.80;;;2.77;;
68583;SDS011;55557;49.220;11.150;2023-07-20T07:01:58;4.90;;;2.83;;
68583;SDS011;55557;49.220;11.150;2023-07-20T07:04:24;4.17;;;2.53;;
68583;SDS011;55557;49.220;11.150;2023-07-20T07:06:50;3.73;;;2.60;;
68583;SDS011;55557;49.220;11.150;2023-07-20T07:09:16;7.67;;;2.90;;
68583;SDS011;55557;49.220;11.150;2023-07-20T07:11:43;7.50;;;2.70;;
68583;SDS011;55557;49.220;11.150;2023-07-20T07:14:09;3.77;;;2.33;;
68583;SDS011;55557;49.220;11.150;2023-07-20T07:16:35;6.63;;;2.27;;
68583;SDS011;55557;49.220;11.150;2023-07-20T07:19:01;7.40;;;2.30;;
68583;SDS011;55557;49.220;11.150;2023-07-20T07:21:28;5.40;;;2.30;;
68583;SDS011;55557;49.220;11.150;2023-07-20T07:23:54;2.63;;;2.17;;
68583;SDS011;55557;49.220;11.150;2023-07-20T07:26:22;5.90;;;2.10;;
68583;SDS011;55557;49.220;11.150;2023-07-20T07:28:49;5.03;;;2.50;;
68583;SDS011;55557;49.220;11.150;2023-07-20T07:31:15;4.70;;;2.43;;
68583;SDS011;55557;49.220;11.150;2023-07-20T07:33:41;7.20;;;2.47;;
68583;SDS011;55557;49.220;11.150;2023-07-20T07:36:07;5.23;;;2.33;;
68583;SDS011;55557;49.220;11.150;2023-07-20T07:38:33;5.57;;;2.63;;
68583;SDS011;55557;49.220;11.150;2023-07-20T07:40:59;8.30;;;2.50;;
68583;SDS011;55557;49.220;11.150;2023-07-20T07:43:25;7.37;;;2.23;;
68583;SDS011;55557;49.220;11.150;2023-07-20T07:45:53;3.53;;;2.00;;
68583;SDS011;55557;49.220;11.150;2023-07-20T07:48:20;6.23;;;2.20;;
68583;SDS011;55557;49.220;11.150;2023-07-20T07:50:47;4.27;;;2.47;;
68583;SDS011;55557;49.220;11.150;2023-07-20T07:53:13;8.47;;;2.47;;
68583;SDS011;55557;49.220;11.150;2023-07-20T07:55:39;6.40;;;2.63;;
68583;SDS011;55557;49.220;11.150;2023-07-20T07:58:05;8.20;;;2.20;;
68583;SDS011;55557;49.220;11.150;2023-07-20T08:00:31;3.87;;;2.60;;
68583;SDS011;55557;49.220;11.150;2023-07-20T08:02:57;4.13;;;2.47;;
68583;SDS011;55557;49.220;11.150;2023-07-20T08:05:23;5.93;;;2.40;;
68583;SDS011;55557;49.220;11.150;2023-07-20T08:07:49;3.23;;;1.90;;
68583;SDS011;55557;49.220;11.150;2023-07-20T08:10:15;6.27;;;2.30;;
68583;SDS011;55557;49.220;11.150;2023-07-20T08:12:41;8.80;;;2.83;;
68583;SDS011;55557;49.220;11.150;2023-07-20T08:15:10;8.67;;;2.07;;
68583;SDS011;55557;49.220;11.150;2023-07-20T08:17:37;4.97;;;2.03;;
68583;SDS011;55557;49.220;11.150;2023-07-20T08:20:05;5.10;;;2.10;;
68583;SDS011;55557;49.220;11.150;2023-07-20T08:22:31;4.07;;;2.10;;
68583;SDS011;55557;49.220;11.150;2023-07-20T08:24:57;3.83;;;2.27;;
68583;SDS011;55557;49.220;11.150;2023-07-20T08:27:24;3.97;;;1.90;;
68583;SDS011;55557;49.220;11.150;2023-07-20T08:29:50;4.50;;;1.67;;
68583;SDS011;55557;49.220;11.150;2023-07-20T08:32:16;4.57;;;1.87;;
68583;SDS011;55557;49.220;11.150;2023-07-20T08:34:42;3.60;;;1.73;;
68583;SDS011;55557;49.220;11.150;2023-07-20T08:37:08;5.93;;;1.77;;
68583;SDS011;55557;49.220;11.150;2023-07-20T08:39:37;3.97;;;1.90;;
68583;SDS011;55557;49.220;11.150;2023-07-20T08:42:03;3.33;;;1.73;;
68583;SDS011;55557;49.220;11.150;2023-07-20T08:44:32;7.73;;;2.20;;
68583;SDS011;55557;49.220;11.150;2023-07-20T08:46:59;3.73;;;1.93;;
68583;SDS011;55557;49.220;11.150;2023-07-20T08:49:28;3.80;;;1.90;;
68583;SDS011;55557;49.220;11.150;2023-07-20T08:51:54;2.37;;;1.60;;
68583;SDS011;55557;49.220;11.150;2023-07-20T08:54:20;4.00;;;2.00;;
68583;SDS011;55557;49.220;11.150;2023-07-20T08:56:46;4.50;;;2.03;;
68583;SDS011;55557;49.220;11.150;2023-07-20T08:59:13;2.17;;;1.77;;
68583;SDS011;55557;49.220;11.150;2023-07-20T09:01:41;4.13;;;1.80;;
68583;SDS011;55557;49.220;11.150;2023-07-20T09:04:07;2.07;;;1.57;;
68583;SDS011;55557;49.220;11.150;2023-07-20T09:06:34;5.47;;;1.80;;
68583;SDS011;55557;49.220;11.150;2023-07-20T09:09:00;3.87;;;2.00;;
68583;SDS011;55557;49.220;11.150;2023-07-20T09:11:26;3.30;;;2.23;;
68583;SDS011;55557;49.220;11.150;2023-07-20T09:14:03;6.00;;;1.53;;
68583;SDS011;55557;49.220;11.150;2023-07-20T09:16:29;3.77;;;1.93;;
68583;SDS011;55557;49.220;11.150;2023-07-20T09:18:57;2.80;;;1.53;;
68583;SDS011;55557;49.220;11.150;2023-07-20T09:21:23;2.10;;;1.60;;
68583;SDS011;55557;49.220;11.150;2023-07-20T09:23:49;4.30;;;1.73;;
68583;SDS011;55557;49.220;11.150;2023-07-20T09:26:18;4.33;;;1.50;;
68583;SDS011;55557;49.220;11.150;2023-07-20T09:28:47;7.37;;;1.80;;
68583;SDS011;55557;49.220;11.150;2023-07-20T09:31:18;3.13;;;1.67;;
68583;SDS011;55557;49.220;11.150;2023-07-20T09:33:44;2.00;;;1.60;;
68583;SDS011;55557;49.220;11.150;2023-07-20T09:36:10;2.77;;;1.40;;
68583;SDS011;55557;49.220;11.150;2023-07-20T09:38:36;2.07;;;1.40;;
68583;SDS011;55557;49.220;11.150;2023-07-20T09:41:04;2.40;;;1.57;;
68583;SDS011;55557;49.220;11.150;2023-07-20T09:43:34;1.87;;;1.30;;
68583;SDS011;55557;49.220;11.150;2023-07-20T09:46:00;3.90;;;1.70;;
68583;SDS011;55557;49.220;11.150;2023-07-20T09:48:26;2.10;;;1.57;;
68583;SDS011;55557;49.220;11.150;2023-07-20T09:50:53;1.80;;;1.43;;
68583;SDS011;55557;49.220;11.150;2023-07-20T09:53:20;3.17;;;1.57;;
68583;SDS011;55557;49.220;11.150;2023-07-20T09:55:47;2.87;;;1.53;;
68583;SDS011;55557;49.220;11.150;2023-07-20T09:58:13;2.27;;;1.50;;
68583;SDS011;55557;49.220;11.150;2023-07-20T10:00:40;3.53;;;1.40;;
68583;SDS011;55557;49.220;11.150;2023-07-20T10:03:13;2.07;;;1.30;;
68583;SDS011;55557;49.220;11.150;2023-07-20T10:05:40;2.10;;;1.40;;
68583;SDS011;55557;49.220;11.150;2023-07-20T10:08:10;3.50;;;1.80;;
68583;SDS011;55557;49.220;11.150;2023-07-20T10:10:36;2.40;;;1.70;;
68583;SDS011;55557;49.220;11.150;2023-07-20T10:13:04;1.77;;;1.27;;
68583;SDS011;55557;49.220;11.150;2023-07-20T10:15:36;5.97;;;1.37;;
68583;SDS011;55557;49.220;11.150;2023-07-20T10:18:12;2.63;;;1.60;;
68583;SDS011;55557;49.220;11.150;2023-07-20T10:20:40;4.00;;;1.10;;
68583;SDS011;55557;49.220;11.150;2023-07-20T10:23:07;3.00;;;1.40;;
68583;SDS011;55557;49.220;11.150;2023-07-20T10:25:33;3.23;;;1.47;;
68583;SDS011;55557;49.220;11.150;2023-07-20T10:28:03;3.77;;;1.30;;
68583;SDS011;55557;49.220;11.150;2023-07-20T10:30:30;1.47;;;1.10;;
68583;SDS011;55557;49.220;11.150;2023-07-20T10:32:56;2.40;;;1.37;;
68583;SDS011;55557;49.220;11.150;2023-07-20T10:35:22;1.20;;;1.10;;
68583;SDS011;55557;49.220;11.150;2023-07-20T10:37:52;4.27;;;1.20;;
68583;SDS011;55557;49.220;11.150;2023-07-20T10:40:39;2.13;;;1.10;;
68583;SDS011;55557;49.220;11.150;2023-07-20T10:43:05;2.83;;;1.33;;
68583;SDS011;55557;49.220;11.150;2023-07-20T10:45:35;1.13;;;1.03;;
68583;SDS011;55557;49.220;11.150;2023-07-20T10:48:04;1.77;;;1.00;;
68583;SDS011;55557;49.220;11.150;2023-07-20T10:50:35;2.60;;;1.10;;
68583;SDS011;55557;49.220;11.150;2023-07-20T10:53:09;4.23;;;1.20;;
68583;SDS011;55557;49.220;11.150;2023-07-20T10:55:36;1.80;;;1.17;;
68583;SDS011;55557;49.220;11.150;2023-07-20T10:58:09;1.27;;;1.00;;
68583;SDS011;55557;49.220;11.150;2023-07-20T11:00:35;1.47;;;1.20;;
68583;SDS011;55557;49.220;11.150;2023-07-20T11:03:02;3.70;;;1.20;;
68583;SDS011;55557;49.220;11.150;2023-07-20T11:05:35;9.30;;;1.73;;
68583;SDS011;55557;49.220;11.150;2023-07-20T11:08:37;1.27;;;1.00;;
68583;SDS011;55557;49.220;11.150;2023-07-20T11:10:50;3.33;;;1.00;;
68583;SDS011;55557;49.220;11.150;2023-07-20T11:13:36;2.10;;;1.13;;
68583;SDS011;55557;49.220;11.150;2023-07-20T11:16:19;4.67;;;1.40;;
68583;SDS011;55557;49.220;11.150;2023-07-20T11:18:45;2.50;;;0.93;;
68583;SDS011;55557;49.220;11.150;2023-07-20T11:21:11;1.10;;;1.00;;
68583;SDS011;55557;49.220;11.150;2023-07-20T11:23:38;3.23;;;1.30;;
68583;SDS011;55557;49.220;11.150;2023-07-20T11:26:04;1.27;;;0.97;;
68583;SDS011;55557;49.220;11.150;2023-07-20T11:28:30;1.83;;;0.97;;
68583;SDS011;55557;49.220;11.150;2023-07-20T11:30:56;1.30;;;1.03;;
68583;SDS011;55557;49.220;11.150;2023-07-20T11:33:22;3.30;;;1.30;;
68583;SDS011;55557;49.220;11.150;2023-07-20T11:35:48;1.47;;;1.17;;
68583;SDS011;55557;49.220;11.150;2023-07-20T11:38:18;1.43;;;1.00;;
68583;SDS011;55557;49.220;11.150;2023-07-20T11:40:44;1.60;;;1.00;;
68583;SDS011;55557;49.220;11.150;2023-07-20T11:43:11;1.80;;;1.00;;
68583;SDS011;55557;49.220;11.150;2023-07-20T11:45:38;2.80;;;1.08;;
68583;SDS011;55557;49.220;11.150;2023-07-20T11:48:04;0.90;;;0.80;;
68583;SDS011;55557;49.220;11.150;2023-07-20T11:50:30;3.83;;;1.10;;
68583;SDS011;55557;49.220;11.150;2023-07-20T11:52:57;1.60;;;0.90;;
68583;SDS011;55557;49.220;11.150;2023-07-20T11:55:23;1.40;;;1.13;;
68583;SDS011;55557;49.220;11.150;2023-07-20T11:58:05;1.83;;;0.93;;
68583;SDS011;55557;49.220;11.150;2023-07-20T12:00:32;3.10;;;0.80;;
68583;SDS011;55557;49.220;11.150;2023-07-20T12:02:58;2.03;;;0.90;;
68583;SDS011;55557;49.220;11.150;2023-07-20T12:05:24;2.47;;;1.10;;
68583;SDS011;55557;49.220;11.150;2023-07-20T12:07:54;1.30;;;1.00;;
68583;SDS011;55557;49.220;11.150;2023-07-20T12:10:23;2.43;;;1.00;;
68583;SDS011;55557;49.220;11.150;2023-07-20T12:12:51;1.63;;;0.93;;
68583;SDS011;55557;49.220;11.150;2023-07-20T12:15:19;1.93;;;1.20;;
68583;SDS011;55557;49.220;11.150;2023-07-20T12:17:46;1.90;;;1.10;;
68583;SDS011;55557;49.220;11.150;2023-07-20T12:20:12;2.70;;;0.93;;
68583;SDS011;55557;49.220;11.150;2023-07-20T12:22:43;1.80;;;1.10;;
68583;SDS011;55557;49.220;11.150;2023-07-20T12:25:09;2.00;;;1.53;;
68583;SDS011;55557;49.220;11.150;2023-07-20T12:27:36;1.53;;;0.80;;
68583;SDS011;55557;49.220;11.150;2023-07-20T12:30:06;1.73;;;0.93;;
68583;SDS011;55557;49.220;11.150;2023-07-20T12:32:33;3.37;;;1.10;;
68583;SDS011;55557;49.220;11.150;2023-07-20T12:34:59;2.23;;;1.10;;
68583;SDS011;55557;49.220;11.150;2023-07-20T12:37:25;1.80;;;1.13;;
68583;SDS011;55557;49.220;11.150;2023-07-20T12:39:51;1.63;;;0.87;;
68583;SDS011;55557;49.220;11.150;2023-07-20T12:42:17;2.07;;;0.83;;
68583;SDS011;55557;49.220;11.150;2023-07-20T12:44:43;3.80;;;1.23;;
68583;SDS011;55557;49.220;11.150;2023-07-20T12:47:09;2.00;;;1.20;;
68583;SDS011;55557;49.220;11.150;2023-07-20T12:49:36;5.53;;;1.20;;
68583;SDS011;55557;49.220;11.150;2023-07-20T12:52:02;1.70;;;1.23;;
68583;SDS011;55557;49.220;11.150;2023-07-20T12:54:28;1.20;;;1.00;;
68583;SDS011;55557;49.220;11.150;2023-07-20T12:56:54;5.30;;;0.97;;
68583;SDS011;55557;49.220;11.150;2023-07-20T12:59:20;1.87;;;1.17;;
68583;SDS011;55557;49.220;11.150;2023-07-20T13:01:46;2.57;;;1.10;;
68583;SDS011;55557;49.220;11.150;2023-07-20T13:04:12;2.77;;;1.20;;
68583;SDS011;55557;49.220;11.150;2023-07-20T13:06:38;1.67;;;1.03;;
68583;SDS011;55557;49.220;11.150;2023-07-20T13:09:06;1.80;;;1.00;;
68583;SDS011;55557;49.220;11.150;2023-07-20T13:11:33;3.10;;;1.17;;
68583;SDS011;55557;49.220;11.150;2023-07-20T13:13:59;1.10;;;1.00;;
68583;SDS011;55557;49.220;11.150;2023-07-20T13:16:25;1.33;;;1.23;;
68583;SDS011;55557;49.220;11.150;2023-07-20T13:18:51;1.90;;;1.10;;
68583;SDS011;55557;49.220;11.150;2023-07-20T13:21:18;2.20;;;1.37;;
68583;SDS011;55557;49.220;11.150;2023-07-20T13:23:47;2.80;;;1.23;;
68583;SDS011;55557;49.220;11.150;2023-07-20T13:26:13;2.47;;;1.27;;
68583;SDS011;55557;49.220;11.150;2023-07-20T13:28:39;1.97;;;1.30;;
68583;SDS011;55557;49.220;11.150;2023-07-20T13:31:05;2.87;;;1.20;;
68583;SDS011;55557;49.220;11.150;2023-07-20T13:33:33;0.80;;;0.80;;
68583;SDS011;55557;49.220;11.150;2023-07-20T13:36:02;1.20;;;1.10;;
68583;SDS011;55557;49.220;11.150;2023-07-20T13:38:30;1.77;;;1.00;;
68583;SDS011;55557;49.220;11.150;2023-07-20T13:40:56;2.73;;;1.37;;
68583;SDS011;55557;49.220;11.150;2023-07-20T13:43:22;1.57;;;1.23;;
68583;SDS011;55557;49.220;11.150;2023-07-20T13:45:51;3.33;;;1.20;;
68583;SDS011;55557;49.220;11.150;2023-07-20T13:48:17;1.63;;;0.97;;
68583;SDS011;55557;49.220;11.150;2023-07-20T13:50:46;2.20;;;1.23;;
68583;SDS011;55557;49.220;11.150;2023-07-20T13:53:12;3.60;;;1.33;;
68583;SDS011;55557;49.220;11.150;2023-07-20T13:55:38;1.97;;;1.10;;
68583;SDS011;55557;49.220;11.150;2023-07-20T13:58:04;2.03;;;1.30;;
68583;SDS011;55557;49.220;11.150;2023-07-20T14:00:30;2.93;;;1.30;;
68583;SDS011;55557;49.220;11.150;2023-07-20T14:02:58;2.80;;;1.40;;
68583;SDS011;55557;49.220;11.150;2023-07-20T14:05:24;1.10;;;1.00;;
68583;SDS011;55557;49.220;11.150;2023-07-20T14:07:50;3.13;;;1.00;;
68583;SDS011;55557;49.220;11.150;2023-07-20T14:10:16;1.73;;;1.00;;
68583;SDS011;55557;49.220;11.150;2023-07-20T14:12:43;2.33;;;1.07;;
68583;SDS011;55557;49.220;11.150;2023-07-20T14:15:10;3.83;;;1.00;;
68583;SDS011;55557;49.220;11.150;2023-07-20T14:17:36;1.07;;;0.90;;
68583;SDS011;55557;49.220;11.150;2023-07-20T14:20:02;3.03;;;1.23;;
68583;SDS011;55557;49.220;11.150;2023-07-20T14:22:31;1.27;;;1.00;;
68583;SDS011;55557;49.220;11.150;2023-07-20T14:24:57;3.37;;;1.13;;
68583;SDS011;55557;49.220;11.150;2023-07-20T14:27:24;1.97;;;1.10;;
68583;SDS011;55557;49.220;11.150;2023-07-20T14:29:50;3.97;;;1.07;;
68583;SDS011;55557;49.220;11.150;2023-07-20T14:32:16;2.53;;;1.10;;
68583;SDS011;55557;49.220;11.150;2023-07-20T14:34:42;2.50;;;1.03;;
68583;SDS011;55557;49.220;11.150;2023-07-20T14:37:08;2.33;;;1.20;;
68583;SDS011;55557;49.220;11.150;2023-07-20T14:39:34;3.23;;;1.13;;
68583;SDS011;55557;49.220;11.150;2023-07-20T14:42:00;1.23;;;0.87;;